Fort Chiswell, Virginia
Current Conditions -  °F | °C
As of 11:35 AM on Tuesday 27 Jan 2015 (Local Time) from KHLX Reporting Station
Clear Clear  
Wind Chill: 16°   Ceiling: Unl
Heat Index: 28°   Visibility: 10mi
Dew Point:   Wind: 15mph
Humidity: 41%   Direction: 320°NW
Pressure: 29.78"   Gusts: 21mph
Location:  36.9453°N, 80.9266°W
Report Text: KHLX 271635Z AUTO 32013G18KT 10SM CLR M02/M14 A2978 RMK AO2 T10231140
Loading
Personal Weather Stations






























Interactive Weather Map New forecast layout! Learn more

10-Day Weather Forecast

Advertisements
Track Severe Weather on mobile